sensor_id;sensor_type;location;lat;lon;timestamp;P1;durP1;ratioP1;P2;durP2;ratioP2
6269;SDS011;3168;51.684;6.954;2023-02-02T00:01:08;0.67;;;0.67;;
6269;SDS011;3168;51.684;6.954;2023-02-02T00:03:34;2.87;;;0.57;;
6269;SDS011;3168;51.684;6.954;2023-02-02T00:06:00;0.60;;;0.60;;
6269;SDS011;3168;51.684;6.954;2023-02-02T00:08:26;2.97;;;0.90;;
6269;SDS011;3168;51.684;6.954;2023-02-02T00:10:52;0.60;;;0.60;;
6269;SDS011;3168;51.684;6.954;2023-02-02T00:13:18;0.70;;;0.60;;
6269;SDS011;3168;51.684;6.954;2023-02-02T00:15:44;2.43;;;1.20;;
6269;SDS011;3168;51.684;6.954;2023-02-02T00:18:10;0.57;;;0.57;;
6269;SDS011;3168;51.684;6.954;2023-02-02T00:20:37;0.80;;;0.80;;
6269;SDS011;3168;51.684;6.954;2023-02-02T00:23:02;0.70;;;0.70;;
6269;SDS011;3168;51.684;6.954;2023-02-02T00:25:29;0.60;;;0.60;;
6269;SDS011;3168;51.684;6.954;2023-02-02T00:27:55;4.57;;;1.03;;
6269;SDS011;3168;51.684;6.954;2023-02-02T00:30:21;1.00;;;1.00;;
6269;SDS011;3168;51.684;6.954;2023-02-02T00:32:47;1.23;;;1.23;;
6269;SDS011;3168;51.684;6.954;2023-02-02T00:35:13;0.70;;;0.70;;
6269;SDS011;3168;51.684;6.954;2023-02-02T00:37:38;1.53;;;1.43;;
6269;SDS011;3168;51.684;6.954;2023-02-02T00:40:04;8.03;;;1.73;;
6269;SDS011;3168;51.684;6.954;2023-02-02T00:42:32;5.20;;;1.20;;
6269;SDS011;3168;51.684;6.954;2023-02-02T00:44:57;12.47;;;1.20;;
6269;SDS011;3168;51.684;6.954;2023-02-02T00:47:29;0.93;;;0.93;;
6269;SDS011;3168;51.684;6.954;2023-02-02T00:49:55;1.80;;;1.40;;
6269;SDS011;3168;51.684;6.954;2023-02-02T00:52:21;1.17;;;1.03;;
6269;SDS011;3168;51.684;6.954;2023-02-02T00:54:47;0.80;;;0.80;;
6269;SDS011;3168;51.684;6.954;2023-02-02T00:57:13;4.10;;;1.10;;
6269;SDS011;3168;51.684;6.954;2023-02-02T00:59:39;2.77;;;1.07;;
6269;SDS011;3168;51.684;6.954;2023-02-02T01:02:04;0.80;;;0.80;;
6269;SDS011;3168;51.684;6.954;2023-02-02T01:04:30;1.10;;;1.10;;
6269;SDS011;3168;51.684;6.954;2023-02-02T01:06:56;0.70;;;0.70;;
6269;SDS011;3168;51.684;6.954;2023-02-02T01:09:22;0.63;;;0.63;;
6269;SDS011;3168;51.684;6.954;2023-02-02T01:11:48;1.13;;;1.13;;
6269;SDS011;3168;51.684;6.954;2023-02-02T01:14:13;1.00;;;1.00;;
6269;SDS011;3168;51.684;6.954;2023-02-02T01:16:39;1.30;;;1.10;;
6269;SDS011;3168;51.684;6.954;2023-02-02T01:19:05;3.37;;;0.70;;
6269;SDS011;3168;51.684;6.954;2023-02-02T01:21:31;0.60;;;0.60;;
6269;SDS011;3168;51.684;6.954;2023-02-02T01:23:56;2.30;;;1.63;;
6269;SDS011;3168;51.684;6.954;2023-02-02T01:26:22;8.23;;;0.70;;
6269;SDS011;3168;51.684;6.954;2023-02-02T01:28:48;1.00;;;1.00;;
6269;SDS011;3168;51.684;6.954;2023-02-02T01:31:15;1.20;;;1.10;;
6269;SDS011;3168;51.684;6.954;2023-02-02T01:33:40;0.90;;;0.90;;
6269;SDS011;3168;51.684;6.954;2023-02-02T01:36:07;0.77;;;0.77;;
6269;SDS011;3168;51.684;6.954;2023-02-02T01:38:32;1.00;;;1.00;;
6269;SDS011;3168;51.684;6.954;2023-02-02T01:40:57;3.07;;;0.80;;
6269;SDS011;3168;51.684;6.954;2023-02-02T01:43:26;2.97;;;1.00;;
6269;SDS011;3168;51.684;6.954;2023-02-02T01:45:52;2.27;;;1.17;;
6269;SDS011;3168;51.684;6.954;2023-02-02T01:48:19;1.30;;;1.30;;
6269;SDS011;3168;51.684;6.954;2023-02-02T01:50:44;1.60;;;1.00;;
6269;SDS011;3168;51.684;6.954;2023-02-02T01:53:10;1.50;;;1.50;;
6269;SDS011;3168;51.684;6.954;2023-02-02T01:55:37;3.60;;;1.87;;
6269;SDS011;3168;51.684;6.954;2023-02-02T01:58:05;4.30;;;1.60;;
6269;SDS011;3168;51.684;6.954;2023-02-02T02:00:30;1.30;;;1.30;;
6269;SDS011;3168;51.684;6.954;2023-02-02T02:02:57;1.00;;;1.00;;
6269;SDS011;3168;51.684;6.954;2023-02-02T02:05:24;1.57;;;1.43;;
6269;SDS011;3168;51.684;6.954;2023-02-02T02:07:50;0.80;;;0.80;;
6269;SDS011;3168;51.684;6.954;2023-02-02T02:10:16;8.13;;;1.60;;
6269;SDS011;3168;51.684;6.954;2023-02-02T02:12:42;2.00;;;1.80;;
6269;SDS011;3168;51.684;6.954;2023-02-02T02:15:08;3.70;;;1.30;;
6269;SDS011;3168;51.684;6.954;2023-02-02T02:17:46;1.40;;;1.40;;
6269;SDS011;3168;51.684;6.954;2023-02-02T02:23:32;20.03;;;1.20;;
6269;SDS011;3168;51.684;6.954;2023-02-02T02:29:09;4.80;;;1.00;;
6269;SDS011;3168;51.684;6.954;2023-02-02T02:34:31;4.90;;;1.80;;
6269;SDS011;3168;51.684;6.954;2023-02-02T02:37:02;0.93;;;0.80;;
6269;SDS011;3168;51.684;6.954;2023-02-02T02:39:35;8.80;;;1.43;;
6269;SDS011;3168;51.684;6.954;2023-02-02T02:42:03;3.50;;;0.93;;
6269;SDS011;3168;51.684;6.954;2023-02-02T02:44:28;15.87;;;2.13;;
6269;SDS011;3168;51.684;6.954;2023-02-02T02:46:54;0.83;;;0.77;;
6269;SDS011;3168;51.684;6.954;2023-02-02T02:49:20;1.53;;;1.53;;
6269;SDS011;3168;51.684;6.954;2023-02-02T02:51:46;0.93;;;0.93;;
6269;SDS011;3168;51.684;6.954;2023-02-02T02:54:13;0.90;;;0.90;;
6269;SDS011;3168;51.684;6.954;2023-02-02T02:59:28;3.20;;;1.33;;
6269;SDS011;3168;51.684;6.954;2023-02-02T03:01:53;1.47;;;1.37;;
6269;SDS011;3168;51.684;6.954;2023-02-02T03:04:21;0.87;;;0.77;;
6269;SDS011;3168;51.684;6.954;2023-02-02T03:06:57;7.20;;;1.53;;
6269;SDS011;3168;51.684;6.954;2023-02-02T03:09:22;1.97;;;1.53;;
6269;SDS011;3168;51.684;6.954;2023-02-02T03:11:48;5.73;;;0.83;;
6269;SDS011;3168;51.684;6.954;2023-02-02T03:14:13;1.27;;;1.17;;
6269;SDS011;3168;51.684;6.954;2023-02-02T03:16:39;6.13;;;0.60;;
6269;SDS011;3168;51.684;6.954;2023-02-02T03:19:05;6.10;;;0.80;;
6269;SDS011;3168;51.684;6.954;2023-02-02T03:21:31;7.57;;;1.50;;
6269;SDS011;3168;51.684;6.954;2023-02-02T03:23:57;0.73;;;0.73;;
6269;SDS011;3168;51.684;6.954;2023-02-02T03:26:23;0.90;;;0.90;;
6269;SDS011;3168;51.684;6.954;2023-02-02T03:28:49;0.70;;;0.70;;
6269;SDS011;3168;51.684;6.954;2023-02-02T03:31:15;2.87;;;1.03;;
6269;SDS011;3168;51.684;6.954;2023-02-02T03:33:41;2.50;;;1.25;;
6269;SDS011;3168;51.684;6.954;2023-02-02T03:36:06;0.83;;;0.77;;
6269;SDS011;3168;51.684;6.954;2023-02-02T03:38:33;4.20;;;1.40;;
6269;SDS011;3168;51.684;6.954;2023-02-02T03:40:59;25.57;;;1.40;;
6269;SDS011;3168;51.684;6.954;2023-02-02T03:43:24;1.87;;;0.80;;
6269;SDS011;3168;51.684;6.954;2023-02-02T03:45:59;3.13;;;1.67;;
6269;SDS011;3168;51.684;6.954;2023-02-02T03:48:26;3.77;;;0.93;;
6269;SDS011;3168;51.684;6.954;2023-02-02T03:50:52;0.50;;;0.50;;
6269;SDS011;3168;51.684;6.954;2023-02-02T03:53:17;1.37;;;1.37;;
6269;SDS011;3168;51.684;6.954;2023-02-02T03:55:43;0.70;;;0.70;;
6269;SDS011;3168;51.684;6.954;2023-02-02T03:58:09;4.10;;;1.13;;
6269;SDS011;3168;51.684;6.954;2023-02-02T04:00:35;0.80;;;0.70;;
6269;SDS011;3168;51.684;6.954;2023-02-02T04:03:00;5.73;;;1.33;;
6269;SDS011;3168;51.684;6.954;2023-02-02T04:05:26;1.27;;;0.87;;
6269;SDS011;3168;51.684;6.954;2023-02-02T04:07:52;0.87;;;0.87;;
6269;SDS011;3168;51.684;6.954;2023-02-02T04:10:18;0.67;;;0.67;;
6269;SDS011;3168;51.684;6.954;2023-02-02T04:12:44;0.80;;;0.80;;
6269;SDS011;3168;51.684;6.954;2023-02-02T04:15:09;1.37;;;0.80;;
6269;SDS011;3168;51.684;6.954;2023-02-02T04:17:35;0.97;;;0.90;;
6269;SDS011;3168;51.684;6.954;2023-02-02T04:20:02;0.87;;;0.87;;
6269;SDS011;3168;51.684;6.954;2023-02-02T04:22:28;1.00;;;1.00;;
6269;SDS011;3168;51.684;6.954;2023-02-02T04:24:53;10.73;;;1.57;;
6269;SDS011;3168;51.684;6.954;2023-02-02T04:27:19;1.87;;;1.77;;
6269;SDS011;3168;51.684;6.954;2023-02-02T04:29:45;1.90;;;1.80;;
6269;SDS011;3168;51.684;6.954;2023-02-02T04:32:13;2.50;;;2.30;;
6269;SDS011;3168;51.684;6.954;2023-02-02T04:34:37;1.60;;;1.60;;
6269;SDS011;3168;51.684;6.954;2023-02-02T04:37:02;1.30;;;1.30;;
6269;SDS011;3168;51.684;6.954;2023-02-02T04:39:28;8.00;;;2.00;;
6269;SDS011;3168;51.684;6.954;2023-02-02T04:41:54;1.60;;;1.60;;
6269;SDS011;3168;51.684;6.954;2023-02-02T04:44:20;1.70;;;1.60;;
6269;SDS011;3168;51.684;6.954;2023-02-02T04:46:46;2.30;;;1.80;;
6269;SDS011;3168;51.684;6.954;2023-02-02T04:49:11;8.33;;;1.60;;
6269;SDS011;3168;51.684;6.954;2023-02-02T04:51:38;4.40;;;1.83;;
6269;SDS011;3168;51.684;6.954;2023-02-02T04:54:04;3.17;;;1.60;;
6269;SDS011;3168;51.684;6.954;2023-02-02T04:56:30;1.77;;;1.77;;
6269;SDS011;3168;51.684;6.954;2023-02-02T04:58:56;7.17;;;1.37;;
6269;SDS011;3168;51.684;6.954;2023-02-02T05:01:22;3.10;;;1.00;;
6269;SDS011;3168;51.684;6.954;2023-02-02T05:03:48;1.30;;;1.30;;
6269;SDS011;3168;51.684;6.954;2023-02-02T05:06:14;7.07;;;2.90;;
6269;SDS011;3168;51.684;6.954;2023-02-02T05:08:40;3.47;;;1.80;;
6269;SDS011;3168;51.684;6.954;2023-02-02T05:11:07;2.83;;;2.63;;
6269;SDS011;3168;51.684;6.954;2023-02-02T05:13:32;5.83;;;2.40;;
6269;SDS011;3168;51.684;6.954;2023-02-02T05:15:58;1.37;;;1.37;;
6269;SDS011;3168;51.684;6.954;2023-02-02T05:18:24;4.03;;;2.07;;
6269;SDS011;3168;51.684;6.954;2023-02-02T05:20:50;3.33;;;2.57;;
6269;SDS011;3168;51.684;6.954;2023-02-02T05:23:16;10.50;;;1.67;;
6269;SDS011;3168;51.684;6.954;2023-02-02T05:25:41;2.53;;;2.07;;
6269;SDS011;3168;51.684;6.954;2023-02-02T05:28:07;8.00;;;2.10;;
6269;SDS011;3168;51.684;6.954;2023-02-02T05:30:33;10.93;;;2.53;;
6269;SDS011;3168;51.684;6.954;2023-02-02T05:32:59;2.67;;;2.40;;
6269;SDS011;3168;51.684;6.954;2023-02-02T05:35:25;1.87;;;1.77;;
6269;SDS011;3168;51.684;6.954;2023-02-02T05:37:51;16.63;;;3.13;;
6269;SDS011;3168;51.684;6.954;2023-02-02T05:40:16;1.57;;;1.10;;
6269;SDS011;3168;51.684;6.954;2023-02-02T05:42:44;12.17;;;1.80;;
6269;SDS011;3168;51.684;6.954;2023-02-02T05:45:08;1.90;;;1.40;;
6269;SDS011;3168;51.684;6.954;2023-02-02T05:47:35;21.73;;;3.00;;
6269;SDS011;3168;51.684;6.954;2023-02-02T05:50:01;5.90;;;2.57;;
6269;SDS011;3168;51.684;6.954;2023-02-02T05:52:27;7.43;;;2.27;;
6269;SDS011;3168;51.684;6.954;2023-02-02T05:54:52;1.67;;;1.67;;
6269;SDS011;3168;51.684;6.954;2023-02-02T05:57:18;3.00;;;1.67;;
6269;SDS011;3168;51.684;6.954;2023-02-02T05:59:44;1.07;;;1.07;;
6269;SDS011;3168;51.684;6.954;2023-02-02T06:02:10;13.83;;;1.60;;
6269;SDS011;3168;51.684;6.954;2023-02-02T06:04:36;1.83;;;1.27;;
6269;SDS011;3168;51.684;6.954;2023-02-02T06:07:02;8.23;;;2.00;;
6269;SDS011;3168;51.684;6.954;2023-02-02T06:09:28;4.33;;;2.33;;
6269;SDS011;3168;51.684;6.954;2023-02-02T06:11:53;1.63;;;1.33;;
6269;SDS011;3168;51.684;6.954;2023-02-02T06:14:19;1.20;;;1.20;;
6269;SDS011;3168;51.684;6.954;2023-02-02T06:16:45;3.37;;;1.97;;
6269;SDS011;3168;51.684;6.954;2023-02-02T06:19:11;12.33;;;1.40;;
6269;SDS011;3168;51.684;6.954;2023-02-02T06:21:37;10.13;;;2.00;;
6269;SDS011;3168;51.684;6.954;2023-02-02T06:24:02;1.20;;;1.13;;
6269;SDS011;3168;51.684;6.954;2023-02-02T06:26:29;1.53;;;1.43;;
6269;SDS011;3168;51.684;6.954;2023-02-02T06:28:55;5.70;;;2.57;;
6269;SDS011;3168;51.684;6.954;2023-02-02T06:31:20;2.43;;;2.03;;
6269;SDS011;3168;51.684;6.954;2023-02-02T06:33:47;2.43;;;1.27;;
6269;SDS011;3168;51.684;6.954;2023-02-02T06:36:12;1.33;;;1.23;;
6269;SDS011;3168;51.684;6.954;2023-02-02T06:38:38;1.40;;;1.40;;
6269;SDS011;3168;51.684;6.954;2023-02-02T06:41:04;4.47;;;2.13;;
6269;SDS011;3168;51.684;6.954;2023-02-02T06:46:03;0.90;;;0.90;;
6269;SDS011;3168;51.684;6.954;2023-02-02T06:59:45;5.50;;;2.80;;
6269;SDS011;3168;51.684;6.954;2023-02-02T07:02:11;6.03;;;2.47;;
6269;SDS011;3168;51.684;6.954;2023-02-02T07:33:54;3.20;;;2.43;;
6269;SDS011;3168;51.684;6.954;2023-02-02T07:36:20;17.57;;;3.27;;
6269;SDS011;3168;51.684;6.954;2023-02-02T07:38:46;2.33;;;2.10;;
6269;SDS011;3168;51.684;6.954;2023-02-02T07:41:12;1.83;;;1.70;;
6269;SDS011;3168;51.684;6.954;2023-02-02T07:43:37;6.40;;;2.67;;
6269;SDS011;3168;51.684;6.954;2023-02-02T07:46:04;1.37;;;1.37;;
6269;SDS011;3168;51.684;6.954;2023-02-02T07:48:29;22.97;;;3.23;;
6269;SDS011;3168;51.684;6.954;2023-02-02T07:50:58;8.43;;;1.90;;
6269;SDS011;3168;51.684;6.954;2023-02-02T07:53:23;4.57;;;2.63;;
6269;SDS011;3168;51.684;6.954;2023-02-02T07:55:49;20.33;;;2.70;;
6269;SDS011;3168;51.684;6.954;2023-02-02T07:58:14;1.90;;;1.73;;
6269;SDS011;3168;51.684;6.954;2023-02-02T08:00:40;3.90;;;3.60;;
6269;SDS011;3168;51.684;6.954;2023-02-02T08:03:09;2.50;;;2.33;;
6269;SDS011;3168;51.684;6.954;2023-02-02T08:05:32;4.37;;;2.47;;
6269;SDS011;3168;51.684;6.954;2023-02-02T08:07:58;4.20;;;2.40;;
6269;SDS011;3168;51.684;6.954;2023-02-02T08:10:24;1.50;;;1.50;;
6269;SDS011;3168;51.684;6.954;2023-02-02T08:12:49;4.70;;;2.53;;
6269;SDS011;3168;51.684;6.954;2023-02-02T08:15:15;4.90;;;1.90;;
6269;SDS011;3168;51.684;6.954;2023-02-02T08:17:44;1.87;;;1.80;;
6269;SDS011;3168;51.684;6.954;2023-02-02T08:20:09;3.63;;;2.57;;
6269;SDS011;3168;51.684;6.954;2023-02-02T08:22:36;2.27;;;2.17;;
6269;SDS011;3168;51.684;6.954;2023-02-02T08:25:02;2.87;;;2.77;;
6269;SDS011;3168;51.684;6.954;2023-02-02T08:27:28;2.67;;;2.47;;
6269;SDS011;3168;51.684;6.954;2023-02-02T08:29:54;1.73;;;1.63;;
6269;SDS011;3168;51.684;6.954;2023-02-02T08:32:20;2.20;;;2.10;;
6269;SDS011;3168;51.684;6.954;2023-02-02T08:34:47;3.13;;;2.70;;
6269;SDS011;3168;51.684;6.954;2023-02-02T08:37:13;8.87;;;3.30;;
6269;SDS011;3168;51.684;6.954;2023-02-02T08:39:39;2.50;;;2.30;;
6269;SDS011;3168;51.684;6.954;2023-02-02T08:42:05;10.40;;;3.97;;
6269;SDS011;3168;51.684;6.954;2023-02-02T08:44:30;5.43;;;3.07;;
6269;SDS011;3168;51.684;6.954;2023-02-02T08:46:56;22.07;;;3.57;;
6269;SDS011;3168;51.684;6.954;2023-02-02T08:49:22;2.20;;;2.13;;
6269;SDS011;3168;51.684;6.954;2023-02-02T08:51:48;4.43;;;2.90;;
6269;SDS011;3168;51.684;6.954;2023-02-02T08:54:14;2.27;;;2.07;;
6269;SDS011;3168;51.684;6.954;2023-02-02T08:56:40;10.40;;;2.50;;
6269;SDS011;3168;51.684;6.954;2023-02-02T08:59:06;8.57;;;3.17;;
6269;SDS011;3168;51.684;6.954;2023-02-02T09:01:33;18.00;;;2.70;;
6269;SDS011;3168;51.684;6.954;2023-02-02T09:04:00;2.00;;;1.93;;
6269;SDS011;3168;51.684;6.954;2023-02-02T09:06:29;2.43;;;2.33;;
6269;SDS011;3168;51.684;6.954;2023-02-02T09:08:54;2.60;;;2.40;;
6269;SDS011;3168;51.684;6.954;2023-02-02T09:11:20;6.43;;;2.80;;
6269;SDS011;3168;51.684;6.954;2023-02-02T09:13:47;1.43;;;1.33;;
6269;SDS011;3168;51.684;6.954;2023-02-02T09:16:13;1.97;;;1.97;;
6269;SDS011;3168;51.684;6.954;2023-02-02T09:18:38;2.03;;;1.97;;
6269;SDS011;3168;51.684;6.954;2023-02-02T09:21:04;4.20;;;2.47;;
6269;SDS011;3168;51.684;6.954;2023-02-02T09:23:31;1.63;;;1.57;;
6269;SDS011;3168;51.684;6.954;2023-02-02T09:25:56;3.37;;;3.03;;
6269;SDS011;3168;51.684;6.954;2023-02-02T09:28:22;8.27;;;1.97;;
6269;SDS011;3168;51.684;6.954;2023-02-02T09:30:48;5.00;;;2.30;;
6269;SDS011;3168;51.684;6.954;2023-02-02T09:33:15;2.70;;;2.50;;
6269;SDS011;3168;51.684;6.954;2023-02-02T09:35:41;8.87;;;1.80;;
6269;SDS011;3168;51.684;6.954;2023-02-02T09:38:07;1.27;;;1.27;;
6269;SDS011;3168;51.684;6.954;2023-02-02T09:40:33;2.17;;;1.80;;
6269;SDS011;3168;51.684;6.954;2023-02-02T09:43:01;2.40;;;2.30;;
6269;SDS011;3168;51.684;6.954;2023-02-02T09:45:33;3.20;;;3.00;;
6269;SDS011;3168;51.684;6.954;2023-02-02T09:48:00;5.97;;;1.90;;
6269;SDS011;3168;51.684;6.954;2023-02-02T09:50:37;3.23;;;2.53;;
6269;SDS011;3168;51.684;6.954;2023-02-02T09:55:40;2.20;;;2.10;;
6269;SDS011;3168;51.684;6.954;2023-02-02T09:58:11;2.80;;;2.67;;
6269;SDS011;3168;51.684;6.954;2023-02-02T10:00:37;2.00;;;1.90;;
6269;SDS011;3168;51.684;6.954;2023-02-02T10:03:05;3.30;;;2.50;;
6269;SDS011;3168;51.684;6.954;2023-02-02T10:05:42;2.90;;;2.70;;
6269;SDS011;3168;51.684;6.954;2023-02-02T10:08:11;1.97;;;1.90;;
6269;SDS011;3168;51.684;6.954;2023-02-02T10:10:38;2.43;;;2.33;;
6269;SDS011;3168;51.684;6.954;2023-02-02T10:13:04;5.70;;;1.97;;
6269;SDS011;3168;51.684;6.954;2023-02-02T10:15:35;2.20;;;2.10;;
6269;SDS011;3168;51.684;6.954;2023-02-02T10:18:21;2.27;;;2.17;;
6269;SDS011;3168;51.684;6.954;2023-02-02T10:20:49;8.43;;;3.50;;
6269;SDS011;3168;51.684;6.954;2023-02-02T10:23:29;2.20;;;2.13;;
6269;SDS011;3168;51.684;6.954;2023-02-02T10:26:02;13.67;;;4.50;;
6269;SDS011;3168;51.684;6.954;2023-02-02T10:28:43;3.10;;;2.63;;
6269;SDS011;3168;51.684;6.954;2023-02-02T10:31:08;2.70;;;2.50;;
6269;SDS011;3168;51.684;6.954;2023-02-02T10:33:35;6.40;;;2.20;;
6269;SDS011;3168;51.684;6.954;2023-02-02T10:36:41;2.20;;;2.00;;
6269;SDS011;3168;51.684;6.954;2023-02-02T10:38:56;6.47;;;3.73;;
6269;SDS011;3168;51.684;6.954;2023-02-02T10:41:32;16.93;;;3.10;;
6269;SDS011;3168;51.684;6.954;2023-02-02T10:44:06;3.20;;;3.00;;
6269;SDS011;3168;51.684;6.954;2023-02-02T10:46:37;14.60;;;3.57;;
6269;SDS011;3168;51.684;6.954;2023-02-02T10:49:10;6.93;;;2.70;;
6269;SDS011;3168;51.684;6.954;2023-02-02T10:51:36;4.23;;;3.50;;
6269;SDS011;3168;51.684;6.954;2023-02-02T10:54:02;2.50;;;2.40;;
6269;SDS011;3168;51.684;6.954;2023-02-02T10:56:33;3.67;;;3.43;;
6269;SDS011;3168;51.684;6.954;2023-02-02T10:59:10;6.17;;;2.53;;
6269;SDS011;3168;51.684;6.954;2023-02-02T11:01:45;1.87;;;1.80;;
6269;SDS011;3168;51.684;6.954;2023-02-02T11:04:11;2.10;;;2.00;;
6269;SDS011;3168;51.684;6.954;2023-02-02T11:06:43;2.87;;;2.20;;
6269;SDS011;3168;51.684;6.954;2023-02-02T11:09:13;6.50;;;1.90;;
6269;SDS011;3168;51.684;6.954;2023-02-02T11:11:40;4.17;;;2.20;;
6269;SDS011;3168;51.684;6.954;2023-02-02T11:14:14;6.20;;;2.67;;
6269;SDS011;3168;51.684;6.954;2023-02-02T11:16:41;3.27;;;2.27;;
6269;SDS011;3168;51.684;6.954;2023-02-02T11:19:25;2.90;;;2.17;;
6269;SDS011;3168;51.684;6.954;2023-02-02T11:21:51;6.30;;;2.10;;
6269;SDS011;3168;51.684;6.954;2023-02-02T11:24:25;3.20;;;2.90;;
6269;SDS011;3168;51.684;6.954;2023-02-02T11:26:56;1.43;;;1.43;;
6269;SDS011;3168;51.684;6.954;2023-02-02T11:29:24;3.70;;;1.50;;
6269;SDS011;3168;51.684;6.954;2023-02-02T11:31:47;7.30;;;3.37;;
6269;SDS011;3168;51.684;6.954;2023-02-02T11:34:15;2.60;;;2.07;;
6269;SDS011;3168;51.684;6.954;2023-02-02T11:36:59;1.23;;;1.23;;
6269;SDS011;3168;51.684;6.954;2023-02-02T11:39:25;1.63;;;1.53;;
6269;SDS011;3168;51.684;6.954;2023-02-02T11:41:57;2.50;;;2.40;;
6269;SDS011;3168;51.684;6.954;2023-02-02T11:44:21;6.10;;;2.73;;
6269;SDS011;3168;51.684;6.954;2023-02-02T11:46:43;8.13;;;2.87;;
6269;SDS011;3168;51.684;6.954;2023-02-02T11:49:13;19.83;;;3.57;;
6269;SDS011;3168;51.684;6.954;2023-02-02T11:51:38;2.20;;;2.10;;
6269;SDS011;3168;51.684;6.954;2023-02-02T11:54:05;2.20;;;2.20;;
6269;SDS011;3168;51.684;6.954;2023-02-02T11:56:30;3.37;;;1.67;;
6269;SDS011;3168;51.684;6.954;2023-02-02T11:58:56;8.33;;;2.07;;
6269;SDS011;3168;51.684;6.954;2023-02-02T12:01:28;2.30;;;2.17;;
6269;SDS011;3168;51.684;6.954;2023-02-02T12:03:55;2.87;;;2.37;;
6269;SDS011;3168;51.684;6.954;2023-02-02T12:06:22;3.33;;;2.90;;
6269;SDS011;3168;51.684;6.954;2023-02-02T12:08:47;3.30;;;2.33;;
6269;SDS011;3168;51.684;6.954;2023-02-02T12:11:20;2.73;;;2.63;;
6269;SDS011;3168;51.684;6.954;2023-02-02T12:14:23;4.80;;;2.20;;
6269;SDS011;3168;51.684;6.954;2023-02-02T12:16:47;13.00;;;2.90;;
6269;SDS011;3168;51.684;6.954;2023-02-02T12:19:16;17.47;;;3.00;;
6269;SDS011;3168;51.684;6.954;2023-02-02T12:21:41;18.73;;;2.50;;
6269;SDS011;3168;51.684;6.954;2023-02-02T12:26:56;2.37;;;2.27;;
6269;SDS011;3168;51.684;6.954;2023-02-02T12:29:26;10.33;;;1.80;;
6269;SDS011;3168;51.684;6.954;2023-02-02T12:31:55;2.40;;;2.20;;
6269;SDS011;3168;51.684;6.954;2023-02-02T12:34:29;8.60;;;2.70;;
6269;SDS011;3168;51.684;6.954;2023-02-02T12:37:06;5.80;;;2.60;;
6269;SDS011;3168;51.684;6.954;2023-02-02T12:39:42;12.30;;;2.70;;
6269;SDS011;3168;51.684;6.954;2023-02-02T12:42:16;1.70;;;1.60;;
6269;SDS011;3168;51.684;6.954;2023-02-02T12:45:00;2.50;;;2.30;;
6269;SDS011;3168;51.684;6.954;2023-02-02T12:47:35;1.52;;;1.52;;
6269;SDS011;3168;51.684;6.954;2023-02-02T12:50:05;5.40;;;2.20;;
6269;SDS011;3168;51.684;6.954;2023-02-02T12:55:35;5.00;;;1.57;;
6269;SDS011;3168;51.684;6.954;2023-02-02T12:58:04;1.20;;;1.20;;
6269;SDS011;3168;51.684;6.954;2023-02-02T13:00:31;3.73;;;3.40;;
6269;SDS011;3168;51.684;6.954;2023-02-02T13:05:57;2.93;;;2.83;;
6269;SDS011;3168;51.684;6.954;2023-02-02T13:08:24;2.37;;;2.17;;
6269;SDS011;3168;51.684;6.954;2023-02-02T13:10:52;2.73;;;2.63;;
6269;SDS011;3168;51.684;6.954;2023-02-02T13:13:17;1.80;;;1.70;;
6269;SDS011;3168;51.684;6.954;2023-02-02T13:15:54;8.20;;;4.10;;
6269;SDS011;3168;51.684;6.954;2023-02-02T13:18:22;10.10;;;3.67;;
6269;SDS011;3168;51.684;6.954;2023-02-02T13:20:47;2.53;;;2.43;;
6269;SDS011;3168;51.684;6.954;2023-02-02T13:23:14;9.10;;;3.10;;
6269;SDS011;3168;51.684;6.954;2023-02-02T13:25:40;3.27;;;3.13;;
6269;SDS011;3168;51.684;6.954;2023-02-02T13:28:05;8.83;;;2.50;;
6269;SDS011;3168;51.684;6.954;2023-02-02T13:30:35;4.03;;;2.80;;
6269;SDS011;3168;51.684;6.954;2023-02-02T13:33:01;6.80;;;3.07;;
6269;SDS011;3168;51.684;6.954;2023-02-02T13:35:27;3.13;;;2.30;;
6269;SDS011;3168;51.684;6.954;2023-02-02T13:38:06;3.00;;;2.80;;
6269;SDS011;3168;51.684;6.954;2023-02-02T13:40:33;10.13;;;3.10;;
6269;SDS011;3168;51.684;6.954;2023-02-02T13:43:04;2.63;;;2.53;;
6269;SDS011;3168;51.684;6.954;2023-02-02T13:45:34;3.30;;;3.07;;
6269;SDS011;3168;51.684;6.954;2023-02-02T13:48:04;10.43;;;3.80;;
6269;SDS011;3168;51.684;6.954;2023-02-02T13:50:27;2.78;;;2.65;;
6269;SDS011;3168;51.684;6.954;2023-02-02T13:53:00;6.00;;;4.67;;
6269;SDS011;3168;51.684;6.954;2023-02-02T13:58:11;3.77;;;3.53;;
6269;SDS011;3168;51.684;6.954;2023-02-02T14:00:39;9.80;;;2.67;;
6269;SDS011;3168;51.684;6.954;2023-02-02T14:03:05;3.03;;;2.83;;
6269;SDS011;3168;51.684;6.954;2023-02-02T14:05:31;6.60;;;3.80;;
6269;SDS011;3168;51.684;6.954;2023-02-02T14:08:01;12.50;;;3.57;;
6269;SDS011;3168;51.684;6.954;2023-02-02T14:10:31;6.00;;;2.37;;
6269;SDS011;3168;51.684;6.954;2023-02-02T14:13:04;2.83;;;2.63;;
6269;SDS011;3168;51.684;6.954;2023-02-02T14:18:04;3.67;;;2.30;;
6269;SDS011;3168;51.684;6.954;2023-02-02T14:23:06;7.13;;;3.33;;
6269;SDS011;3168;51.684;6.954;2023-02-02T14:28:37;13.30;;;2.30;;
6269;SDS011;3168;51.684;6.954;2023-02-02T14:30:38;4.43;;;3.30;;
6269;SDS011;3168;51.684;6.954;2023-02-02T14:35:57;3.20;;;2.97;;
6269;SDS011;3168;51.684;6.954;2023-02-02T14:38:31;4.27;;;4.00;;
6269;SDS011;3168;51.684;6.954;2023-02-02T14:40:58;3.43;;;3.23;;
6269;SDS011;3168;51.684;6.954;2023-02-02T14:43:24;11.40;;;3.60;;
6269;SDS011;3168;51.684;6.954;2023-02-02T14:48:48;13.00;;;2.97;;
6269;SDS011;3168;51.684;6.954;2023-02-02T14:51:19;2.67;;;2.57;;
6269;SDS011;3168;51.684;6.954;2023-02-02T14:53:46;3.90;;;1.90;;
6269;SDS011;3168;51.684;6.954;2023-02-02T14:56:13;1.40;;;1.40;;
6269;SDS011;3168;51.684;6.954;2023-02-02T14:58:40;3.83;;;2.40;;
6269;SDS011;3168;51.684;6.954;2023-02-02T15:01:17;6.77;;;2.37;;
6269;SDS011;3168;51.684;6.954;2023-02-02T15:03:53;3.00;;;2.73;;
6269;SDS011;3168;51.684;6.954;2023-02-02T15:06:36;15.00;;;2.40;;
6269;SDS011;3168;51.684;6.954;2023-02-02T15:14:40;9.47;;;2.43;;
6269;SDS011;3168;51.684;6.954;2023-02-02T15:17:27;2.00;;;1.97;;
6269;SDS011;3168;51.684;6.954;2023-02-02T15:20:12;4.23;;;2.20;;
6269;SDS011;3168;51.684;6.954;2023-02-02T15:22:44;3.53;;;2.20;;
6269;SDS011;3168;51.684;6.954;2023-02-02T15:25:29;2.17;;;2.10;;
6269;SDS011;3168;51.684;6.954;2023-02-02T15:30:28;7.70;;;2.57;;
6269;SDS011;3168;51.684;6.954;2023-02-02T15:32:53;5.43;;;2.37;;
6269;SDS011;3168;51.684;6.954;2023-02-02T15:35:20;4.70;;;1.73;;
6269;SDS011;3168;51.684;6.954;2023-02-02T15:37:45;2.40;;;2.30;;
6269;SDS011;3168;51.684;6.954;2023-02-02T15:40:12;3.17;;;2.87;;
6269;SDS011;3168;51.684;6.954;2023-02-02T15:42:41;2.30;;;1.90;;
6269;SDS011;3168;51.684;6.954;2023-02-02T15:47:50;3.73;;;3.53;;
6269;SDS011;3168;51.684;6.954;2023-02-02T15:50:16;4.23;;;2.40;;
6269;SDS011;3168;51.684;6.954;2023-02-02T15:52:44;2.37;;;2.27;;
6269;SDS011;3168;51.684;6.954;2023-02-02T15:55:18;3.37;;;2.17;;
6269;SDS011;3168;51.684;6.954;2023-02-02T15:57:44;2.07;;;1.87;;
6269;SDS011;3168;51.684;6.954;2023-02-02T16:02:59;3.23;;;3.03;;
6269;SDS011;3168;51.684;6.954;2023-02-02T16:05:44;6.90;;;3.77;;
6269;SDS011;3168;51.684;6.954;2023-02-02T16:08:14;4.50;;;2.50;;
6269;SDS011;3168;51.684;6.954;2023-02-02T16:10:39;4.13;;;3.03;;
6269;SDS011;3168;51.684;6.954;2023-02-02T16:13:05;7.13;;;4.33;;
6269;SDS011;3168;51.684;6.954;2023-02-02T16:15:30;4.83;;;2.40;;
6269;SDS011;3168;51.684;6.954;2023-02-02T16:17:58;2.80;;;2.70;;
6269;SDS011;3168;51.684;6.954;2023-02-02T16:20:23;3.70;;;3.40;;
6269;SDS011;3168;51.684;6.954;2023-02-02T16:22:49;3.00;;;2.83;;
6269;SDS011;3168;51.684;6.954;2023-02-02T16:25:15;3.17;;;2.90;;
6269;SDS011;3168;51.684;6.954;2023-02-02T16:27:41;5.73;;;3.33;;
6269;SDS011;3168;51.684;6.954;2023-02-02T16:30:07;4.47;;;4.07;;
6269;SDS011;3168;51.684;6.954;2023-02-02T16:32:34;3.30;;;2.87;;
6269;SDS011;3168;51.684;6.954;2023-02-02T16:35:00;3.93;;;3.73;;
6269;SDS011;3168;51.684;6.954;2023-02-02T16:37:26;2.80;;;2.70;;
6269;SDS011;3168;51.684;6.954;2023-02-02T16:39:54;2.73;;;2.37;;
6269;SDS011;3168;51.684;6.954;2023-02-02T16:42:26;5.17;;;4.23;;
6269;SDS011;3168;51.684;6.954;2023-02-02T16:44:51;2.80;;;2.70;;
6269;SDS011;3168;51.684;6.954;2023-02-02T16:47:35;5.00;;;3.80;;
6269;SDS011;3168;51.684;6.954;2023-02-02T16:50:16;31.27;;;4.83;;
6269;SDS011;3168;51.684;6.954;2023-02-02T16:55:23;2.90;;;2.70;;
6269;SDS011;3168;51.684;6.954;2023-02-02T17:00:24;4.33;;;4.03;;